sensor_id;sensor_type;location;lat;lon;timestamp;pressure;altitude;pressure_sealevel;temperature;humidity
58471;BME280;44258;51.288;12.068;2022-12-29T00:01:28;99655.78;;;8.38;57.68
58471;BME280;44258;51.288;12.068;2022-12-29T00:03:55;99652.59;;;8.31;58.08
58471;BME280;44258;51.288;12.068;2022-12-29T00:06:22;99662.25;;;8.34;57.98
58471;BME280;44258;51.288;12.068;2022-12-29T00:08:49;99668.47;;;8.34;57.92
58471;BME280;44258;51.288;12.068;2022-12-29T00:11:19;99659.50;;;8.36;57.60
58471;BME280;44258;51.288;12.068;2022-12-29T00:13:47;99655.25;;;8.47;57.36
58471;BME280;44258;51.288;12.068;2022-12-29T00:16:34;99657.81;;;8.49;57.36
58471;BME280;44258;51.288;12.068;2022-12-29T00:19:04;99661.03;;;8.56;57.13
58471;BME280;44258;51.288;12.068;2022-12-29T00:21:31;99646.25;;;8.48;57.15
58471;BME280;44258;51.288;12.068;2022-12-29T00:24:17;99661.81;;;8.58;56.82
58471;BME280;44258;51.288;12.068;2022-12-29T00:27:11;99658.31;;;8.71;56.47
58471;BME280;44258;51.288;12.068;2022-12-29T00:29:55;99655.38;;;8.60;56.57
58471;BME280;44258;51.288;12.068;2022-12-29T00:32:41;99649.34;;;8.57;56.79
58471;BME280;44258;51.288;12.068;2022-12-29T00:35:28;99642.22;;;8.71;56.62
58471;BME280;44258;51.288;12.068;2022-12-29T00:37:57;99648.03;;;8.64;56.51
58471;BME280;44258;51.288;12.068;2022-12-29T00:40:43;99639.19;;;8.78;56.46
58471;BME280;44258;51.288;12.068;2022-12-29T00:43:27;99628.06;;;8.69;56.47
58471;BME280;44258;51.288;12.068;2022-12-29T00:46:11;99626.41;;;8.67;56.48
58471;BME280;44258;51.288;12.068;2022-12-29T00:48:39;99623.31;;;8.59;56.96
58471;BME280;44258;51.288;12.068;2022-12-29T00:51:23;99624.78;;;8.64;56.76
58471;BME280;44258;51.288;12.068;2022-12-29T00:53:50;99611.91;;;8.55;57.10
58471;BME280;44258;51.288;12.068;2022-12-29T00:56:16;99608.25;;;8.72;56.82
58471;BME280;44258;51.288;12.068;2022-12-29T00:58:43;99617.88;;;8.60;57.31
58471;BME280;44258;51.288;12.068;2022-12-29T01:01:11;99614.28;;;8.76;56.89
58471;BME280;44258;51.288;12.068;2022-12-29T01:03:37;99622.09;;;8.64;57.39
58471;BME280;44258;51.288;12.068;2022-12-29T01:06:07;99613.09;;;8.65;57.22
58471;BME280;44258;51.288;12.068;2022-12-29T01:08:34;99617.53;;;8.81;57.03
58471;BME280;44258;51.288;12.068;2022-12-29T01:11:04;99622.03;;;8.80;57.03
58471;BME280;44258;51.288;12.068;2022-12-29T01:13:30;99632.69;;;8.82;57.00
58471;BME280;44258;51.288;12.068;2022-12-29T01:15:56;99622.41;;;8.74;57.32
58471;BME280;44258;51.288;12.068;2022-12-29T01:18:25;99625.84;;;8.62;57.93
58471;BME280;44258;51.288;12.068;2022-12-29T01:20:58;99624.03;;;8.77;57.55
58471;BME280;44258;51.288;12.068;2022-12-29T01:23:26;99620.06;;;8.84;57.37
58471;BME280;44258;51.288;12.068;2022-12-29T01:25:53;99610.53;;;8.64;58.04
58471;BME280;44258;51.288;12.068;2022-12-29T01:28:20;99616.19;;;8.73;57.88
58471;BME280;44258;51.288;12.068;2022-12-29T01:30:46;99614.69;;;8.84;57.63
58471;BME280;44258;51.288;12.068;2022-12-29T01:33:13;99625.78;;;8.78;57.77
58471;BME280;44258;51.288;12.068;2022-12-29T01:35:40;99621.00;;;8.97;57.45
58471;BME280;44258;51.288;12.068;2022-12-29T01:38:07;99629.44;;;8.91;57.75
58471;BME280;44258;51.288;12.068;2022-12-29T01:40:43;99638.22;;;8.79;58.19
58471;BME280;44258;51.288;12.068;2022-12-29T01:43:10;99627.38;;;9.10;57.49
58471;BME280;44258;51.288;12.068;2022-12-29T01:45:39;99627.75;;;9.19;57.16
58471;BME280;44258;51.288;12.068;2022-12-29T01:48:08;99628.00;;;9.14;57.14
58471;BME280;44258;51.288;12.068;2022-12-29T01:50:39;99635.03;;;9.17;57.42
58471;BME280;44258;51.288;12.068;2022-12-29T01:53:10;99629.66;;;9.17;57.50
58471;BME280;44258;51.288;12.068;2022-12-29T01:55:44;99632.53;;;9.13;57.69
58471;BME280;44258;51.288;12.068;2022-12-29T01:58:14;99624.69;;;9.25;57.30
58471;BME280;44258;51.288;12.068;2022-12-29T02:00:41;99628.53;;;9.21;57.87
58471;BME280;44258;51.288;12.068;2022-12-29T02:03:09;99637.34;;;9.23;57.65
58471;BME280;44258;51.288;12.068;2022-12-29T02:05:40;99632.53;;;9.28;57.68
58471;BME280;44258;51.288;12.068;2022-12-29T02:08:07;99633.59;;;9.25;57.80
58471;BME280;44258;51.288;12.068;2022-12-29T02:10:40;99631.28;;;9.05;58.43
58471;BME280;44258;51.288;12.068;2022-12-29T02:13:07;99624.47;;;9.28;58.10
58471;BME280;44258;51.288;12.068;2022-12-29T02:15:45;99626.78;;;9.34;57.91
58471;BME280;44258;51.288;12.068;2022-12-29T02:18:24;99620.47;;;9.21;58.15
58471;BME280;44258;51.288;12.068;2022-12-29T02:21:21;99623.63;;;9.27;58.25
58471;BME280;44258;51.288;12.068;2022-12-29T02:27:10;99632.44;;;9.15;58.79
58471;BME280;44258;51.288;12.068;2022-12-29T02:29:58;99632.16;;;9.34;58.29
58471;BME280;44258;51.288;12.068;2022-12-29T02:32:37;99625.06;;;9.19;58.74
58471;BME280;44258;51.288;12.068;2022-12-29T02:35:12;99620.38;;;9.37;58.35
58471;BME280;44258;51.288;12.068;2022-12-29T02:37:43;99621.53;;;9.32;58.14
58471;BME280;44258;51.288;12.068;2022-12-29T02:40:22;99614.66;;;9.43;58.24
58471;BME280;44258;51.288;12.068;2022-12-29T02:42:56;99612.44;;;9.49;58.28
58471;BME280;44258;51.288;12.068;2022-12-29T02:45:29;99614.28;;;9.49;57.90
58471;BME280;44258;51.288;12.068;2022-12-29T02:48:04;99595.97;;;9.56;58.11
58471;BME280;44258;51.288;12.068;2022-12-29T02:50:35;99596.78;;;9.70;57.61
58471;BME280;44258;51.288;12.068;2022-12-29T02:53:05;99593.16;;;9.71;57.61
58471;BME280;44258;51.288;12.068;2022-12-29T02:55:33;99584.81;;;9.76;57.63
58471;BME280;44258;51.288;12.068;2022-12-29T02:58:14;99589.56;;;9.85;57.53
58471;BME280;44258;51.288;12.068;2022-12-29T03:00:48;99585.19;;;9.70;57.71
58471;BME280;44258;51.288;12.068;2022-12-29T03:03:27;99583.66;;;9.66;58.01
58471;BME280;44258;51.288;12.068;2022-12-29T03:06:10;99578.97;;;9.69;57.99
58471;BME280;44258;51.288;12.068;2022-12-29T03:08:43;99566.03;;;9.62;58.10
58471;BME280;44258;51.288;12.068;2022-12-29T03:11:13;99573.47;;;9.71;58.06
58471;BME280;44258;51.288;12.068;2022-12-29T03:13:56;99568.78;;;9.74;58.10
58471;BME280;44258;51.288;12.068;2022-12-29T03:16:44;99565.78;;;9.79;57.92
58471;BME280;44258;51.288;12.068;2022-12-29T03:19:16;99566.41;;;9.70;58.22
58471;BME280;44258;51.288;12.068;2022-12-29T03:21:48;99562.19;;;9.66;58.59
58471;BME280;44258;51.288;12.068;2022-12-29T03:24:36;99563.22;;;9.78;58.19
58471;BME280;44258;51.288;12.068;2022-12-29T03:27:06;99568.09;;;9.71;58.25
58471;BME280;44258;51.288;12.068;2022-12-29T03:29:39;99584.25;;;9.57;58.59
58471;BME280;44258;51.288;12.068;2022-12-29T03:32:09;99581.44;;;9.72;58.19
58471;BME280;44258;51.288;12.068;2022-12-29T03:34:39;99579.47;;;9.62;58.47
58471;BME280;44258;51.288;12.068;2022-12-29T03:37:10;99566.19;;;9.73;58.31
58471;BME280;44258;51.288;12.068;2022-12-29T03:39:38;99576.75;;;9.76;58.24
58471;BME280;44258;51.288;12.068;2022-12-29T03:42:08;99581.44;;;9.72;58.44
58471;BME280;44258;51.288;12.068;2022-12-29T03:44:39;99574.41;;;9.57;58.81
58471;BME280;44258;51.288;12.068;2022-12-29T03:47:07;99563.13;;;9.65;58.70
58471;BME280;44258;51.288;12.068;2022-12-29T03:49:35;99564.13;;;9.64;58.56
58471;BME280;44258;51.288;12.068;2022-12-29T03:52:03;99572.09;;;9.65;58.60
58471;BME280;44258;51.288;12.068;2022-12-29T03:54:30;99573.22;;;9.76;58.25
58471;BME280;44258;51.288;12.068;2022-12-29T03:56:57;99567.47;;;9.67;58.58
58471;BME280;44258;51.288;12.068;2022-12-29T03:59:24;99562.88;;;9.69;58.70
58471;BME280;44258;51.288;12.068;2022-12-29T04:01:52;99569.88;;;9.58;58.92
58471;BME280;44258;51.288;12.068;2022-12-29T04:04:19;99575.03;;;9.61;58.93
58471;BME280;44258;51.288;12.068;2022-12-29T04:06:46;99573.03;;;9.64;59.07
58471;BME280;44258;51.288;12.068;2022-12-29T04:09:14;99570.78;;;9.71;59.02
58471;BME280;44258;51.288;12.068;2022-12-29T04:11:41;99573.38;;;9.72;59.18
58471;BME280;44258;51.288;12.068;2022-12-29T04:14:07;99568.38;;;9.81;58.79
58471;BME280;44258;51.288;12.068;2022-12-29T04:16:34;99571.34;;;9.90;58.74
58471;BME280;44258;51.288;12.068;2022-12-29T04:19:03;99552.44;;;9.92;58.69
58471;BME280;44258;51.288;12.068;2022-12-29T04:21:31;99557.53;;;9.82;58.96
58471;BME280;44258;51.288;12.068;2022-12-29T04:23:56;99556.16;;;9.89;59.01
58471;BME280;44258;51.288;12.068;2022-12-29T04:26:24;99553.88;;;9.98;58.93
58471;BME280;44258;51.288;12.068;2022-12-29T04:28:51;99549.94;;;9.89;59.37
58471;BME280;44258;51.288;12.068;2022-12-29T04:31:17;99534.31;;;9.81;60.00
58471;BME280;44258;51.288;12.068;2022-12-29T04:33:44;99534.63;;;9.77;60.02
58471;BME280;44258;51.288;12.068;2022-12-29T04:36:10;99529.19;;;9.78;60.44
58471;BME280;44258;51.288;12.068;2022-12-29T04:38:37;99520.00;;;9.68;60.80
58471;BME280;44258;51.288;12.068;2022-12-29T04:41:04;99520.81;;;9.56;61.55
58471;BME280;44258;51.288;12.068;2022-12-29T04:43:32;99516.28;;;9.56;61.64
58471;BME280;44258;51.288;12.068;2022-12-29T04:45:59;99523.09;;;9.62;61.57
58471;BME280;44258;51.288;12.068;2022-12-29T04:48:25;99518.13;;;9.56;61.93
58471;BME280;44258;51.288;12.068;2022-12-29T04:50:52;99524.44;;;9.54;62.14
58471;BME280;44258;51.288;12.068;2022-12-29T04:53:19;99508.19;;;9.70;61.77
58471;BME280;44258;51.288;12.068;2022-12-29T04:55:48;99499.75;;;9.77;61.37
58471;BME280;44258;51.288;12.068;2022-12-29T04:58:15;99501.16;;;9.82;61.14
58471;BME280;44258;51.288;12.068;2022-12-29T05:00:43;99490.56;;;9.66;61.81
58471;BME280;44258;51.288;12.068;2022-12-29T05:03:10;99501.88;;;9.71;61.81
58471;BME280;44258;51.288;12.068;2022-12-29T05:05:37;99488.59;;;9.56;62.46
58471;BME280;44258;51.288;12.068;2022-12-29T05:08:04;99503.06;;;9.67;62.16
58471;BME280;44258;51.288;12.068;2022-12-29T05:10:31;99505.00;;;9.78;61.64
58471;BME280;44258;51.288;12.068;2022-12-29T05:12:57;99499.47;;;9.67;61.96
58471;BME280;44258;51.288;12.068;2022-12-29T05:15:25;99500.56;;;9.64;62.06
58471;BME280;44258;51.288;12.068;2022-12-29T05:17:53;99497.97;;;9.63;62.01
58471;BME280;44258;51.288;12.068;2022-12-29T05:20:19;99495.94;;;9.66;61.72
58471;BME280;44258;51.288;12.068;2022-12-29T05:22:46;99504.03;;;9.79;61.32
58471;BME280;44258;51.288;12.068;2022-12-29T05:25:13;99511.91;;;9.82;61.32
58471;BME280;44258;51.288;12.068;2022-12-29T05:27:39;99507.66;;;9.65;61.80
58471;BME280;44258;51.288;12.068;2022-12-29T05:30:07;99507.00;;;9.62;61.71
58471;BME280;44258;51.288;12.068;2022-12-29T05:32:34;99507.00;;;9.62;61.74
58471;BME280;44258;51.288;12.068;2022-12-29T05:35:03;99518.97;;;9.56;61.95
58471;BME280;44258;51.288;12.068;2022-12-29T05:37:29;99512.31;;;9.49;62.18
58471;BME280;44258;51.288;12.068;2022-12-29T05:39:56;99498.00;;;9.48;62.38
58471;BME280;44258;51.288;12.068;2022-12-29T05:42:25;99502.34;;;9.37;62.68
58471;BME280;44258;51.288;12.068;2022-12-29T05:44:51;99506.34;;;9.44;62.26
58471;BME280;44258;51.288;12.068;2022-12-29T05:47:19;99516.53;;;9.39;62.88
58471;BME280;44258;51.288;12.068;2022-12-29T05:49:45;99511.63;;;9.45;62.26
58471;BME280;44258;51.288;12.068;2022-12-29T05:52:13;99500.59;;;9.35;62.89
58471;BME280;44258;51.288;12.068;2022-12-29T05:54:40;99514.09;;;9.34;62.83
58471;BME280;44258;51.288;12.068;2022-12-29T05:57:06;99503.00;;;9.26;63.08
58471;BME280;44258;51.288;12.068;2022-12-29T05:59:36;99512.56;;;9.30;63.08
58471;BME280;44258;51.288;12.068;2022-12-29T06:02:02;99510.56;;;9.33;62.99
58471;BME280;44258;51.288;12.068;2022-12-29T06:04:29;99511.25;;;9.23;63.27
58471;BME280;44258;51.288;12.068;2022-12-29T06:06:56;99517.25;;;9.26;63.37
58471;BME280;44258;51.288;12.068;2022-12-29T06:09:24;99526.31;;;9.40;63.06
58471;BME280;44258;51.288;12.068;2022-12-29T06:11:50;99522.53;;;9.28;63.54
58471;BME280;44258;51.288;12.068;2022-12-29T06:14:17;99523.03;;;9.34;63.32
58471;BME280;44258;51.288;12.068;2022-12-29T06:16:44;99526.00;;;9.44;63.18
58471;BME280;44258;51.288;12.068;2022-12-29T06:19:14;99532.22;;;9.59;62.67
58471;BME280;44258;51.288;12.068;2022-12-29T06:21:40;99530.75;;;9.68;62.59
58471;BME280;44258;51.288;12.068;2022-12-29T06:24:07;99529.94;;;9.80;62.30
58471;BME280;44258;51.288;12.068;2022-12-29T06:26:35;99526.53;;;9.91;61.90
58471;BME280;44258;51.288;12.068;2022-12-29T06:29:02;99530.84;;;9.93;61.82
58471;BME280;44258;51.288;12.068;2022-12-29T06:31:28;99515.44;;;9.83;62.13
58471;BME280;44258;51.288;12.068;2022-12-29T06:33:56;99532.00;;;9.89;62.15
58471;BME280;44258;51.288;12.068;2022-12-29T06:36:22;99526.22;;;9.95;61.92
58471;BME280;44258;51.288;12.068;2022-12-29T06:38:49;99526.22;;;9.95;61.84
58471;BME280;44258;51.288;12.068;2022-12-29T06:41:17;99535.06;;;9.98;62.08
58471;BME280;44258;51.288;12.068;2022-12-29T06:43:45;99525.59;;;9.92;62.46
58471;BME280;44258;51.288;12.068;2022-12-29T06:46:12;99522.59;;;9.97;62.25
58471;BME280;44258;51.288;12.068;2022-12-29T06:48:38;99525.28;;;9.97;62.40
58471;BME280;44258;51.288;12.068;2022-12-29T06:51:07;99523.38;;;10.11;61.76
58471;BME280;44258;51.288;12.068;2022-12-29T06:53:34;99510.69;;;10.13;61.52
58471;BME280;44258;51.288;12.068;2022-12-29T06:56:01;99499.84;;;10.15;61.49
58471;BME280;44258;51.288;12.068;2022-12-29T06:58:27;99494.16;;;10.07;61.73
58471;BME280;44258;51.288;12.068;2022-12-29T07:00:55;99496.34;;;9.87;62.45
58471;BME280;44258;51.288;12.068;2022-12-29T07:03:22;99492.88;;;9.85;62.53
58471;BME280;44258;51.288;12.068;2022-12-29T07:05:48;99489.56;;;9.82;62.70
58471;BME280;44258;51.288;12.068;2022-12-29T07:08:15;99492.53;;;9.77;62.92
58471;BME280;44258;51.288;12.068;2022-12-29T07:10:41;99489.50;;;9.69;63.24
58471;BME280;44258;51.288;12.068;2022-12-29T07:13:08;99497.97;;;9.63;63.79
58471;BME280;44258;51.288;12.068;2022-12-29T07:15:36;99482.53;;;9.66;63.98
58471;BME280;44258;51.288;12.068;2022-12-29T07:18:04;99481.84;;;9.63;64.01
58471;BME280;44258;51.288;12.068;2022-12-29T07:20:31;99486.78;;;9.56;64.53
58471;BME280;44258;51.288;12.068;2022-12-29T07:22:58;99488.03;;;9.50;64.83
58471;BME280;44258;51.288;12.068;2022-12-29T07:25:24;99505.09;;;9.49;64.95
58471;BME280;44258;51.288;12.068;2022-12-29T07:27:54;99505.66;;;9.54;64.90
58471;BME280;44258;51.288;12.068;2022-12-29T07:30:21;99497.59;;;9.54;65.04
58471;BME280;44258;51.288;12.068;2022-12-29T07:32:47;99504.84;;;9.67;64.71
58471;BME280;44258;51.288;12.068;2022-12-29T07:35:15;99512.41;;;9.74;64.45
58471;BME280;44258;51.288;12.068;2022-12-29T07:37:42;99515.44;;;9.83;64.12
58471;BME280;44258;51.288;12.068;2022-12-29T07:40:09;99508.19;;;9.70;64.47
58471;BME280;44258;51.288;12.068;2022-12-29T07:42:36;99519.75;;;9.85;64.17
58471;BME280;44258;51.288;12.068;2022-12-29T07:45:03;99518.78;;;9.86;64.15
58471;BME280;44258;51.288;12.068;2022-12-29T07:47:30;99517.81;;;9.87;64.06
58471;BME280;44258;51.288;12.068;2022-12-29T07:49:57;99521.66;;;9.83;64.34
58471;BME280;44258;51.288;12.068;2022-12-29T07:52:25;99520.75;;;9.97;63.96
58471;BME280;44258;51.288;12.068;2022-12-29T07:54:51;99530.13;;;10.04;63.54
58471;BME280;44258;51.288;12.068;2022-12-29T07:57:18;99532.75;;;10.19;63.12
58471;BME280;44258;51.288;12.068;2022-12-29T07:59:44;99545.13;;;10.34;62.58
58471;BME280;44258;51.288;12.068;2022-12-29T08:02:11;99546.31;;;10.30;62.63
58471;BME280;44258;51.288;12.068;2022-12-29T08:04:38;99549.06;;;10.43;62.40
58471;BME280;44258;51.288;12.068;2022-12-29T08:07:05;99550.34;;;10.50;62.06
58471;BME280;44258;51.288;12.068;2022-12-29T08:09:34;99548.72;;;10.34;62.47
58471;BME280;44258;51.288;12.068;2022-12-29T08:12:04;99548.28;;;10.41;62.25
58471;BME280;44258;51.288;12.068;2022-12-29T08:14:38;99547.63;;;10.37;62.29
58471;BME280;44258;51.288;12.068;2022-12-29T08:17:05;99547.75;;;10.48;62.20
58471;BME280;44258;51.288;12.068;2022-12-29T08:19:38;99541.94;;;10.54;61.78
58471;BME280;44258;51.288;12.068;2022-12-29T08:22:05;99554.44;;;10.68;61.36
58471;BME280;44258;51.288;12.068;2022-12-29T08:24:33;99546.03;;;10.60;61.71
58471;BME280;44258;51.288;12.068;2022-12-29T08:27:00;99558.22;;;10.66;61.68
58471;BME280;44258;51.288;12.068;2022-12-29T08:29:27;99549.19;;;10.67;61.73
58471;BME280;44258;51.288;12.068;2022-12-29T08:31:53;99545.75;;;10.78;61.23
58471;BME280;44258;51.288;12.068;2022-12-29T08:34:20;99543.34;;;10.60;61.69
58471;BME280;44258;51.288;12.068;2022-12-29T08:36:47;99533.25;;;10.77;61.28
58471;BME280;44258;51.288;12.068;2022-12-29T08:39:14;99529.63;;;10.78;61.01
58471;BME280;44258;51.288;12.068;2022-12-29T08:41:42;99527.47;;;10.83;61.38
58471;BME280;44258;51.288;12.068;2022-12-29T08:44:08;99525.66;;;10.96;60.79
58471;BME280;44258;51.288;12.068;2022-12-29T08:46:35;99528.78;;;11.03;60.76
58471;BME280;44258;51.288;12.068;2022-12-29T08:49:02;99529.63;;;11.16;60.53
58471;BME280;44258;51.288;12.068;2022-12-29T08:51:28;99538.66;;;11.15;60.76
58471;BME280;44258;51.288;12.068;2022-12-29T08:53:55;99527.66;;;11.31;60.49
58471;BME280;44258;51.288;12.068;2022-12-29T08:56:21;99529.69;;;11.40;59.92
58471;BME280;44258;51.288;12.068;2022-12-29T08:58:50;99525.97;;;11.30;60.20
58471;BME280;44258;51.288;12.068;2022-12-29T09:01:17;99529.34;;;11.45;60.08
58471;BME280;44258;51.288;12.068;2022-12-29T09:03:44;99529.13;;;11.48;59.82
58471;BME280;44258;51.288;12.068;2022-12-29T09:06:10;99529.75;;;11.51;59.50
58471;BME280;44258;51.288;12.068;2022-12-29T09:08:38;99534.59;;;11.59;59.39
58471;BME280;44258;51.288;12.068;2022-12-29T09:11:08;99537.59;;;11.67;59.15
58471;BME280;44258;51.288;12.068;2022-12-29T09:13:35;99528.59;;;11.80;58.85
58471;BME280;44258;51.288;12.068;2022-12-29T09:16:04;99529.25;;;11.70;59.07
58471;BME280;44258;51.288;12.068;2022-12-29T09:18:31;99538.97;;;11.73;58.48
58471;BME280;44258;51.288;12.068;2022-12-29T09:20:58;99536.72;;;11.67;58.23
58471;BME280;44258;51.288;12.068;2022-12-29T09:23:25;99536.97;;;11.88;58.17
58471;BME280;44258;51.288;12.068;2022-12-29T09:25:52;99536.47;;;12.07;57.93
58471;BME280;44258;51.288;12.068;2022-12-29T09:28:20;99541.09;;;12.05;57.56
58471;BME280;44258;51.288;12.068;2022-12-29T09:30:48;99524.06;;;12.04;57.72
58471;BME280;44258;51.288;12.068;2022-12-29T09:33:16;99530.97;;;12.08;57.37
58471;BME280;44258;51.288;12.068;2022-12-29T09:35:45;99530.00;;;12.09;57.43
58471;BME280;44258;51.288;12.068;2022-12-29T09:38:11;99520.34;;;11.94;57.59
58471;BME280;44258;51.288;12.068;2022-12-29T09:40:44;99504.91;;;11.72;57.61
58471;BME280;44258;51.288;12.068;2022-12-29T09:43:27;99505.66;;;11.74;57.52
58471;BME280;44258;51.288;12.068;2022-12-29T09:46:05;99517.06;;;11.53;57.86
58471;BME280;44258;51.288;12.068;2022-12-29T09:48:41;99501.13;;;11.50;58.18
58471;BME280;44258;51.288;12.068;2022-12-29T09:51:13;99498.50;;;11.62;57.91
58471;BME280;44258;51.288;12.068;2022-12-29T09:53:43;99487.78;;;11.49;58.28
58471;BME280;44258;51.288;12.068;2022-12-29T09:56:15;99484.25;;;11.48;58.47
58471;BME280;44258;51.288;12.068;2022-12-29T09:58:49;99484.34;;;11.47;58.63
58471;BME280;44258;51.288;12.068;2022-12-29T10:01:23;99486.59;;;11.53;58.35
58471;BME280;44258;51.288;12.068;2022-12-29T10:03:56;99485.53;;;11.43;58.72
58471;BME280;44258;51.288;12.068;2022-12-29T10:06:27;99476.19;;;11.35;58.86
58471;BME280;44258;51.288;12.068;2022-12-29T10:09:02;99474.44;;;11.47;58.77
58471;BME280;44258;51.288;12.068;2022-12-29T10:11:50;99471.88;;;11.33;58.68
58471;BME280;44258;51.288;12.068;2022-12-29T10:14:29;99462.97;;;11.20;58.88
58471;BME280;44258;51.288;12.068;2022-12-29T10:17:02;99464.16;;;11.28;59.02
58471;BME280;44258;51.288;12.068;2022-12-29T10:19:51;99455.78;;;11.20;59.00
58471;BME280;44258;51.288;12.068;2022-12-29T10:22:32;99448.41;;;11.35;58.67
58471;BME280;44258;51.288;12.068;2022-12-29T10:25:06;99464.38;;;11.25;59.10
58471;BME280;44258;51.288;12.068;2022-12-29T10:27:38;99455.34;;;11.13;59.72
58471;BME280;44258;51.288;12.068;2022-12-29T10:30:11;99461.69;;;11.25;59.31
58471;BME280;44258;51.288;12.068;2022-12-29T10:32:40;99465.75;;;11.31;59.23
58471;BME280;44258;51.288;12.068;2022-12-29T10:35:17;99466.16;;;11.38;59.24
58471;BME280;44258;51.288;12.068;2022-12-29T10:37:49;99475.63;;;11.43;58.90
58471;BME280;44258;51.288;12.068;2022-12-29T10:40:23;99462.97;;;11.32;59.17
58471;BME280;44258;51.288;12.068;2022-12-29T10:42:54;99465.09;;;11.40;59.09
58471;BME280;44258;51.288;12.068;2022-12-29T10:45:23;99475.78;;;11.29;59.47
58471;BME280;44258;51.288;12.068;2022-12-29T10:47:57;99468.81;;;11.50;58.90
58471;BME280;44258;51.288;12.068;2022-12-29T10:50:28;99476.31;;;11.58;58.53
58471;BME280;44258;51.288;12.068;2022-12-29T10:52:56;99471.22;;;11.66;58.14
58471;BME280;44258;51.288;12.068;2022-12-29T10:55:27;99476.44;;;11.57;58.79
58471;BME280;44258;51.288;12.068;2022-12-29T10:57:55;99476.88;;;11.74;58.28
58471;BME280;44258;51.288;12.068;2022-12-29T11:00:23;99470.47;;;11.88;58.10
58471;BME280;44258;51.288;12.068;2022-12-29T11:05:46;99485.16;;;12.08;57.47
58471;BME280;44258;51.288;12.068;2022-12-29T11:08:19;99485.72;;;12.01;57.30
58471;BME280;44258;51.288;12.068;2022-12-29T11:10:58;99487.34;;;12.03;56.97
58471;BME280;44258;51.288;12.068;2022-12-29T11:13:26;99490.25;;;12.00;57.21
58471;BME280;44258;51.288;12.068;2022-12-29T11:15:53;99483.47;;;12.07;56.96
58471;BME280;44258;51.288;12.068;2022-12-29T11:18:22;99499.19;;;12.01;57.24
58471;BME280;44258;51.288;12.068;2022-12-29T11:20:53;99487.50;;;12.13;56.64
58471;BME280;44258;51.288;12.068;2022-12-29T11:23:24;99488.97;;;12.06;56.68
58471;BME280;44258;51.288;12.068;2022-12-29T11:26:16;99478.34;;;11.91;56.74
58471;BME280;44258;51.288;12.068;2022-12-29T11:28:44;99483.31;;;12.09;56.36
58471;BME280;44258;51.288;12.068;2022-12-29T11:31:15;99489.50;;;12.22;56.39
58471;BME280;44258;51.288;12.068;2022-12-29T11:33:42;99479.56;;;12.23;56.27
58471;BME280;44258;51.288;12.068;2022-12-29T11:36:14;99497.78;;;12.08;56.64
58471;BME280;44258;51.288;12.068;2022-12-29T11:38:46;99496.09;;;12.18;56.49
58471;BME280;44258;51.288;12.068;2022-12-29T11:41:20;99489.03;;;12.28;56.33
58471;BME280;44258;51.288;12.068;2022-12-29T11:43:47;99483.06;;;12.36;56.24
58471;BME280;44258;51.288;12.068;2022-12-29T11:46:17;99478.72;;;12.22;56.25
58471;BME280;44258;51.288;12.068;2022-12-29T11:48:46;99479.16;;;12.40;56.21
58471;BME280;44258;51.288;12.068;2022-12-29T11:51:23;99479.75;;;12.44;55.62
58471;BME280;44258;51.288;12.068;2022-12-29T11:53:53;99484.28;;;12.32;56.09
58471;BME280;44258;51.288;12.068;2022-12-29T11:56:33;99485.38;;;12.41;56.30
58471;BME280;44258;51.288;12.068;2022-12-29T11:59:25;99493.47;;;12.41;56.46
58471;BME280;44258;51.288;12.068;2022-12-29T12:02:15;99478.88;;;12.32;55.87
58471;BME280;44258;51.288;12.068;2022-12-29T12:04:48;99476.56;;;12.39;55.79
58471;BME280;44258;51.288;12.068;2022-12-29T12:07:22;99485.88;;;12.34;55.82
58471;BME280;44258;51.288;12.068;2022-12-29T12:09:53;99489.56;;;12.45;55.68
58471;BME280;44258;51.288;12.068;2022-12-29T12:12:27;99492.22;;;12.33;55.98
58471;BME280;44258;51.288;12.068;2022-12-29T12:14:58;99501.25;;;12.57;55.56
58471;BME280;44258;51.288;12.068;2022-12-29T12:17:29;99506.66;;;12.68;55.39
58471;BME280;44258;51.288;12.068;2022-12-29T12:20:13;99498.09;;;12.85;55.24
58471;BME280;44258;51.288;12.068;2022-12-29T12:22:47;99500.66;;;12.75;55.27
58471;BME280;44258;51.288;12.068;2022-12-29T12:25:18;99498.69;;;12.78;55.03
58471;BME280;44258;51.288;12.068;2022-12-29T12:27:50;99495.53;;;12.72;55.37
58471;BME280;44258;51.288;12.068;2022-12-29T12:30:20;99496.97;;;12.88;54.65
58471;BME280;44258;51.288;12.068;2022-12-29T12:32:52;99498.69;;;12.66;55.13
58471;BME280;44258;51.288;12.068;2022-12-29T12:35:25;99486.19;;;12.77;55.21
58471;BME280;44258;51.288;12.068;2022-12-29T12:38:17;99492.34;;;12.79;55.10
58471;BME280;44258;51.288;12.068;2022-12-29T12:41:00;99491.47;;;12.89;54.75
58471;BME280;44258;51.288;12.068;2022-12-29T12:43:37;99488.78;;;12.89;54.64
58471;BME280;44258;51.288;12.068;2022-12-29T12:46:37;99495.78;;;12.81;54.46
58471;BME280;44258;51.288;12.068;2022-12-29T12:49:35;99491.72;;;12.75;54.84
58471;BME280;44258;51.288;12.068;2022-12-29T12:52:16;99491.81;;;12.73;54.38
58471;BME280;44258;51.288;12.068;2022-12-29T12:55:02;99490.31;;;12.47;54.61
58471;BME280;44258;51.288;12.068;2022-12-29T12:57:40;99496.41;;;12.38;54.90
58471;BME280;44258;51.288;12.068;2022-12-29T13:00:14;99484.94;;;12.11;55.64
58471;BME280;44258;51.288;12.068;2022-12-29T13:02:53;99487.78;;;12.21;55.87
58471;BME280;44258;51.288;12.068;2022-12-29T13:05:30;99498.72;;;12.31;56.05
58471;BME280;44258;51.288;12.068;2022-12-29T13:08:18;99494.91;;;12.33;56.21
58471;BME280;44258;51.288;12.068;2022-12-29T13:10:54;99496.75;;;12.33;56.30
58471;BME280;44258;51.288;12.068;2022-12-29T13:13:40;99512.19;;;12.31;56.72
58471;BME280;44258;51.288;12.068;2022-12-29T13:16:19;99511.63;;;12.50;56.21
58471;BME280;44258;51.288;12.068;2022-12-29T13:18:52;99508.19;;;12.48;56.43
58471;BME280;44258;51.288;12.068;2022-12-29T13:21:33;99507.00;;;12.63;56.34